Time;durP1;ratioP1;P1;durP2;ratioP2;P2;SDS_P1;SDS_P2;PMS_P1;PMS_P2;Temp;Humidity;BMP_temperature;BMP_pressure;BME280_temperature;BME280_humidity;BME280_pressure;Samples;Min_cycle;Max_cycle;Signal;HPM_P1;HPM_P2
2021/09/26 00:00:57;;;;;;;2.80;1.48;;;23.30;53.50;;;;;;5012461;28;20128;-60
2021/09/26 00:03:23;;;;;;;1.73;1.40;;;23.30;53.50;;;;;;5026641;28;20029;-62
2021/09/26 00:05:49;;;;;;;2.47;1.40;;;23.30;53.40;;;;;;5026577;28;20022;-59
2021/09/26 00:08:14;;;;;;;3.58;1.50;;;23.30;53.40;;;;;;5023630;28;20574;-61
2021/09/26 00:10:40;;;;;;;2.25;1.38;;;23.30;53.40;;;;;;5023789;28;20068;-64
2021/09/26 00:13:06;;;;;;;1.77;1.38;;;23.30;53.50;;;;;;5030584;28;20102;-60
2021/09/26 00:15:32;;;;;;;2.53;1.58;;;23.30;53.40;;;;;;5020934;28;20143;-64
2021/09/26 00:17:58;;;;;;;2.60;1.65;;;23.30;53.90;;;;;;5022784;28;20034;-56
2021/09/26 00:20:24;;;;;;;4.65;1.65;;;23.30;53.40;;;;;;5026787;28;20033;-64
2021/09/26 00:22:50;;;;;;;2.20;1.40;;;23.30;53.40;;;;;;5027489;28;20029;-57
2021/09/26 00:25:17;;;;;;;2.47;1.52;;;23.30;53.40;;;;;;5023465;28;20544;-61
2021/09/26 00:27:43;;;;;;;2.30;1.40;;;23.30;53.40;;;;;;5022726;28;20033;-64
2021/09/26 00:30:10;;;;;;;2.55;1.42;;;23.30;53.40;;;;;;5021209;28;20021;-61
2021/09/26 00:32:36;;;;;;;2.15;1.30;;;23.30;53.40;;;;;;5031550;28;20021;-65
2021/09/26 00:35:03;;;;;;;2.38;1.20;;;23.30;53.40;;;;;;5018255;28;20433;-60
2021/09/26 00:37:29;;;;;;;1.98;1.40;;;23.30;53.40;;;;;;5014272;28;20041;-61
2021/09/26 00:39:54;;;;;;;2.45;1.50;;;23.30;53.40;;;;;;5017656;28;20079;-60
2021/09/26 00:42:20;;;;;;;2.47;1.40;;;23.30;53.40;;;;;;5022624;28;20025;-61
2021/09/26 00:44:46;;;;;;;2.13;1.40;;;23.30;53.40;;;;;;5023847;28;20052;-61
2021/09/26 00:47:12;;;;;;;2.50;1.58;;;23.30;53.40;;;;;;5030080;28;20052;-65
2021/09/26 00:49:37;;;;;;;2.55;1.38;;;23.30;53.40;;;;;;5013873;28;20087;-65
2021/09/26 00:52:03;;;;;;;2.45;1.20;;;23.30;53.40;;;;;;5024944;28;20053;-59
2021/09/26 00:54:29;;;;;;;1.80;1.23;;;23.30;53.40;;;;;;5027644;28;20376;-60
2021/09/26 00:56:57;;;;;;;2.22;1.30;;;23.30;53.40;;;;;;5038780;28;20080;-61
2021/09/26 00:59:22;;;;;;;2.17;1.40;;;23.30;53.90;;;;;;5021519;28;20108;-64
2021/09/26 01:01:49;;;;;;;1.73;1.05;;;23.30;53.40;;;;;;5015322;28;20125;-60
2021/09/26 01:04:17;;;;;;;3.30;1.30;;;23.20;53.30;;;;;;5022517;28;20108;-61
2021/09/26 01:06:56;;;;;;;2.30;1.38;;;23.30;53.30;;;;;;5020742;28;20030;-61
2021/09/26 01:09:40;;;;;;;2.35;1.30;;;23.30;53.30;;;;;;5020219;28;20025;-65
2021/09/26 01:12:29;;;;;;;1.92;1.25;;;23.30;53.90;;;;;;5023378;28;20122;-60
2021/09/26 01:15:02;;;;;;;2.58;1.50;;;23.30;53.40;;;;;;5019356;28;20026;-66
2021/09/26 01:17:31;;;;;;;2.42;1.38;;;23.20;53.30;;;;;;5032497;28;20129;-60
2021/09/26 01:20:06;;;;;;;2.63;1.40;;;23.30;53.40;;;;;;5025488;28;20094;-65
2021/09/26 01:22:59;;;;;;;2.38;1.40;;;23.30;53.40;;;;;;5021562;28;20033;-61
2021/09/26 01:25:37;;;;;;;2.40;1.52;;;23.30;53.40;;;;;;5018987;28;20094;-60
2021/09/26 01:28:28;;;;;;;2.28;1.40;;;23.20;53.40;;;;;;5020890;28;20037;-60
2021/09/26 01:31:14;;;;;;;1.80;1.30;;;23.20;53.30;;;;;;5006504;28;20028;-61
2021/09/26 01:33:50;;;;;;;2.33;1.40;;;23.20;53.30;;;;;;5031157;28;20045;-65
2021/09/26 01:36:31;;;;;;;2.80;1.40;;;23.20;53.30;;;;;;5021720;28;20103;-60
2021/09/26 01:39:07;;;;;;;1.80;1.30;;;23.20;53.30;;;;;;5022916;28;20044;-65
2021/09/26 01:41:52;;;;;;;2.30;1.40;;;23.20;53.30;;;;;;5019552;28;20499;-61
2021/09/26 01:44:50;;;;;;;1.88;1.30;;;23.20;53.30;;;;;;5035997;28;20033;-60
2021/09/26 01:47:19;;;;;;;2.13;1.40;;;23.20;53.30;;;;;;5013755;28;20048;-60
2021/09/26 01:49:50;;;;;;;2.50;1.30;;;23.20;53.30;;;;;;5025259;28;20045;-60
2021/09/26 01:52:23;;;;;;;2.22;1.30;;;23.20;53.30;;;;;;5020218;28;20069;-62
2021/09/26 01:54:49;;;;;;;2.05;1.30;;;23.20;53.30;;;;;;5017136;28;20528;-61
2021/09/26 01:57:19;;;;;;;2.40;1.60;;;23.20;53.40;;;;;;5022409;28;20026;-65
2021/09/26 01:59:51;;;;;;;2.35;1.50;;;23.20;53.40;;;;;;5021458;28;20020;-60
2021/09/26 02:02:18;;;;;;;2.35;1.40;;;23.20;53.30;;;;;;5027055;28;20033;-59
2021/09/26 02:04:50;;;;;;;2.80;1.30;;;23.20;53.40;;;;;;5024814;28;20056;-60
2021/09/26 02:07:17;;;;;;;1.73;1.17;;;23.20;53.40;;;;;;5027019;28;20729;-65
2021/09/26 02:09:46;;;;;;;1.30;1.10;;;23.20;53.90;;;;;;5030558;28;20037;-60
2021/09/26 02:12:14;;;;;;;2.00;1.30;;;23.20;53.40;;;;;;5019542;28;20148;-60
2021/09/26 02:14:41;;;;;;;1.95;1.33;;;23.20;53.40;;;;;;5023628;28;20903;-61
2021/09/26 02:17:08;;;;;;;2.45;1.45;;;23.20;53.40;;;;;;5022440;28;20021;-61
2021/09/26 02:19:35;;;;;;;1.90;1.30;;;23.20;53.40;;;;;;5024356;28;20035;-62
2021/09/26 02:22:01;;;;;;;2.05;1.50;;;23.20;53.30;;;;;;5023013;28;20765;-60
2021/09/26 02:24:27;;;;;;;2.15;1.50;;;23.20;53.30;;;;;;5022650;28;20026;-63
2021/09/26 02:26:53;;;;;;;2.45;1.27;;;23.10;53.30;;;;;;5043761;28;20683;-64
2021/09/26 02:29:18;;;;;;;1.90;1.38;;;23.20;53.30;;;;;;5030418;28;20089;-60
2021/09/26 02:31:44;;;;;;;2.42;1.30;;;23.10;53.30;;;;;;5025434;28;20433;-61
2021/09/26 02:34:10;;;;;;;2.60;1.40;;;23.10;53.30;;;;;;5028217;28;20036;-61
2021/09/26 02:36:35;;;;;;;1.52;1.10;;;23.10;53.30;;;;;;5026519;28;20022;-61
2021/09/26 02:39:02;;;;;;;2.17;1.42;;;23.10;53.30;;;;;;5013772;28;20040;-60
2021/09/26 02:41:49;;;;;;;2.50;1.50;;;23.10;53.30;;;;;;5036245;28;20056;-65
2021/09/26 02:44:26;;;;;;;3.08;1.40;;;23.10;53.30;;;;;;5020001;28;20030;-62
2021/09/26 02:47:03;;;;;;;1.58;1.30;;;23.10;53.30;;;;;;5016815;28;20425;-62
2021/09/26 02:49:29;;;;;;;2.13;1.40;;;23.10;53.30;;;;;;5018664;28;20061;-60
2021/09/26 02:51:55;;;;;;;2.85;1.20;;;23.10;53.30;;;;;;5024611;28;20480;-60
2021/09/26 02:54:22;;;;;;;1.95;1.40;;;23.10;53.30;;;;;;5021216;28;20017;-64
2021/09/26 02:56:50;;;;;;;2.10;1.30;;;23.10;53.30;;;;;;5024011;28;20029;-60
2021/09/26 02:59:17;;;;;;;1.38;1.20;;;23.10;53.30;;;;;;5022917;28;20124;-61
2021/09/26 03:01:52;;;;;;;1.73;1.15;;;23.10;53.30;;;;;;5024104;28;20033;-59
2021/09/26 03:04:19;;;;;;;1.92;1.30;;;23.10;53.30;;;;;;5022232;28;20035;-60
2021/09/26 03:06:44;;;;;;;1.70;1.17;;;23.10;53.30;;;;;;5026449;28;20048;-61
2021/09/26 03:09:10;;;;;;;1.83;1.27;;;23.10;53.30;;;;;;5018078;28;20116;-61
2021/09/26 03:11:36;;;;;;;1.50;1.20;;;23.10;53.30;;;;;;5028002;28;20056;-61
2021/09/26 03:14:01;;;;;;;2.00;1.38;;;23.10;53.40;;;;;;5022782;28;20037;-60
2021/09/26 03:16:27;;;;;;;1.65;1.20;;;23.10;53.30;;;;;;5023751;28;20029;-65
2021/09/26 03:18:53;;;;;;;1.70;1.13;;;23.10;53.30;;;;;;5024385;28;20033;-62
2021/09/26 03:21:18;;;;;;;2.10;1.35;;;23.10;53.90;;;;;;5024840;28;20041;-60
2021/09/26 03:23:44;;;;;;;2.00;1.20;;;23.10;53.30;;;;;;5028852;28;20029;-63
2021/09/26 03:26:10;;;;;;;2.33;1.50;;;23.10;53.40;;;;;;5025152;28;20037;-60
2021/09/26 03:28:36;;;;;;;1.60;1.20;;;23.10;53.40;;;;;;5019280;28;20026;-60
2021/09/26 03:31:02;;;;;;;1.85;1.30;;;23.10;53.90;;;;;;5012927;28;20048;-61
2021/09/26 03:33:27;;;;;;;1.73;1.20;;;23.10;53.40;;;;;;5032430;28;20026;-60
2021/09/26 03:35:53;;;;;;;1.60;1.20;;;23.10;53.30;;;;;;5023130;28;20056;-66
2021/09/26 03:38:19;;;;;;;1.80;1.30;;;23.10;53.30;;;;;;5025648;28;20041;-61
2021/09/26 03:40:44;;;;;;;1.58;1.20;;;23.10;53.30;;;;;;5027762;28;20036;-60
2021/09/26 03:43:10;;;;;;;1.80;1.20;;;23.10;53.30;;;;;;5021235;28;20117;-65
2021/09/26 03:45:36;;;;;;;1.92;1.30;;;23.10;53.40;;;;;;5024123;28;20029;-60
2021/09/26 03:48:02;;;;;;;1.25;1.10;;;23.10;53.30;;;;;;5013572;28;20029;-61
2021/09/26 03:50:28;;;;;;;2.00;1.40;;;23.10;53.30;;;;;;5028709;28;20104;-61
2021/09/26 03:52:53;;;;;;;1.90;1.30;;;23.10;53.40;;;;;;5025059;28;20121;-60
2021/09/26 03:55:19;;;;;;;2.50;1.30;;;23.00;53.30;;;;;;5023289;28;20036;-61
2021/09/26 03:57:45;;;;;;;1.98;1.40;;;23.10;53.30;;;;;;5023993;28;20048;-63
2021/09/26 04:00:14;;;;;;;1.83;1.27;;;23.10;53.40;;;;;;5019338;28;20113;-60
2021/09/26 04:02:40;;;;;;;2.47;1.13;;;23.00;53.30;;;;;;5020269;28;20022;-60
2021/09/26 04:05:07;;;;;;;1.90;1.40;;;23.00;53.30;;;;;;5045893;28;20041;-65
2021/09/26 04:07:33;;;;;;;1.95;1.20;;;23.00;53.30;;;;;;5016085;28;20492;-64
2021/09/26 04:09:59;;;;;;;1.65;1.30;;;23.00;53.30;;;;;;5024017;28;20032;-60
2021/09/26 04:12:25;;;;;;;2.17;1.40;;;23.00;53.30;;;;;;5029644;28;20035;-60
2021/09/26 04:14:50;;;;;;;1.70;1.25;;;23.00;53.30;;;;;;5025417;28;20033;-65
2021/09/26 04:17:16;;;;;;;2.08;1.30;;;23.10;53.40;;;;;;5040682;28;20128;-60
2021/09/26 04:19:42;;;;;;;1.50;1.17;;;23.00;53.30;;;;;;5020532;28;20477;-61
2021/09/26 04:22:08;;;;;;;1.70;1.20;;;23.00;53.30;;;;;;5024226;28;20037;-61
2021/09/26 04:24:33;;;;;;;1.70;1.27;;;23.00;53.30;;;;;;5031027;28;20029;-59
2021/09/26 04:26:59;;;;;;;1.50;1.15;;;23.00;53.30;;;;;;5020340;28;20030;-59
2021/09/26 04:29:25;;;;;;;1.92;1.40;;;23.00;53.30;;;;;;5016610;28;20025;-59
2021/09/26 04:31:51;;;;;;;1.65;1.33;;;23.00;53.30;;;;;;5018546;28;20065;-66
2021/09/26 04:34:17;;;;;;;2.08;1.30;;;23.00;53.30;;;;;;5036805;28;20040;-60
2021/09/26 04:36:43;;;;;;;1.80;1.30;;;23.00;53.30;;;;;;5025402;28;20029;-60
2021/09/26 04:39:08;;;;;;;1.90;1.50;;;23.00;53.30;;;;;;5036542;28;20061;-60
2021/09/26 04:41:34;;;;;;;1.50;1.10;;;23.00;53.30;;;;;;5015664;28;20044;-59
2021/09/26 04:44:00;;;;;;;1.80;1.20;;;23.00;53.40;;;;;;5022861;28;20771;-60
2021/09/26 04:46:26;;;;;;;1.52;1.20;;;23.00;53.90;;;;;;5021051;28;20209;-60
2021/09/26 04:48:51;;;;;;;1.90;1.30;;;23.00;53.30;;;;;;5025969;28;20120;-61
2021/09/26 04:51:17;;;;;;;1.48;1.10;;;23.00;53.30;;;;;;5024980;28;20116;-65
2021/09/26 04:53:43;;;;;;;1.55;1.27;;;23.00;53.40;;;;;;5023831;28;20076;-61
2021/09/26 04:56:08;;;;;;;1.50;1.17;;;23.00;53.30;;;;;;5025830;28;20033;-62
2021/09/26 04:58:34;;;;;;;1.70;1.30;;;23.00;53.40;;;;;;5012505;28;20030;-61
2021/09/26 05:01:00;;;;;;;1.67;1.20;;;23.00;53.40;;;;;;5018250;28;20046;-61
2021/09/26 05:03:25;;;;;;;1.25;1.10;;;23.00;53.40;;;;;;5016405;28;20045;-60
2021/09/26 05:05:51;;;;;;;1.30;1.05;;;23.00;53.40;;;;;;5027575;28;20423;-61
2021/09/26 05:08:17;;;;;;;1.95;1.30;;;23.00;53.40;;;;;;5019451;28;20445;-60
2021/09/26 05:10:42;;;;;;;1.42;1.17;;;23.00;53.40;;;;;;5018186;28;20026;-61
2021/09/26 05:13:09;;;;;;;1.63;1.20;;;23.00;53.40;;;;;;5023738;28;20107;-60
2021/09/26 05:15:34;;;;;;;1.80;1.30;;;23.00;53.40;;;;;;5024313;28;20041;-61
2021/09/26 05:18:00;;;;;;;1.92;1.40;;;23.00;53.40;;;;;;5026255;28;20033;-61
2021/09/26 05:20:26;;;;;;;1.65;1.30;;;23.00;53.40;;;;;;5021396;28;20044;-65
2021/09/26 05:22:53;;;;;;;1.50;1.23;;;23.00;53.40;;;;;;5026061;28;20029;-62
2021/09/26 05:25:19;;;;;;;1.70;1.25;;;23.00;53.40;;;;;;5021618;28;20025;-66
2021/09/26 05:27:45;;;;;;;1.45;1.17;;;22.90;53.40;;;;;;5025603;28;20116;-59
2021/09/26 05:30:11;;;;;;;1.77;1.30;;;22.90;53.40;;;;;;5018049;28;20113;-60
2021/09/26 05:32:37;;;;;;;2.63;1.52;;;23.00;53.50;;;;;;5024020;28;20120;-62
2021/09/26 05:35:03;;;;;;;1.50;1.20;;;23.00;53.50;;;;;;5028118;28;20306;-61
2021/09/26 05:37:29;;;;;;;1.70;1.30;;;23.00;53.50;;;;;;5025096;28;20035;-60
2021/09/26 05:39:55;;;;;;;1.80;1.30;;;23.00;53.50;;;;;;5027767;28;20457;-59
2021/09/26 05:42:20;;;;;;;2.40;1.33;;;22.90;53.50;;;;;;5016563;28;20040;-60
2021/09/26 05:44:46;;;;;;;1.92;1.40;;;23.00;53.50;;;;;;5027592;28;20048;-60
2021/09/26 05:47:14;;;;;;;1.95;1.30;;;22.90;53.40;;;;;;5017515;28;20028;-60
2021/09/26 05:49:40;;;;;;;1.88;1.25;;;22.90;53.50;;;;;;5025359;28;20655;-59
2021/09/26 05:52:08;;;;;;;1.75;1.20;;;22.90;53.40;;;;;;5032731;28;20033;-61
2021/09/26 05:54:35;;;;;;;1.45;1.23;;;22.90;53.50;;;;;;5029122;28;20028;-60
2021/09/26 05:57:01;;;;;;;2.08;1.50;;;22.90;53.50;;;;;;5024790;28;20044;-63
2021/09/26 05:59:26;;;;;;;2.30;1.50;;;22.90;53.50;;;;;;5024177;28;20771;-60
2021/09/26 06:01:52;;;;;;;2.00;1.35;;;22.90;53.50;;;;;;5029341;28;20040;-60
2021/09/26 06:04:18;;;;;;;2.10;1.50;;;22.90;53.50;;;;;;5021016;28;20045;-58
2021/09/26 06:06:43;;;;;;;1.98;1.45;;;22.90;53.50;;;;;;5032472;28;20394;-60
2021/09/26 06:09:09;;;;;;;1.92;1.35;;;22.90;53.50;;;;;;5022455;28;20049;-63
2021/09/26 06:11:34;;;;;;;2.00;1.40;;;22.90;53.50;;;;;;5026520;28;20061;-64
2021/09/26 06:14:00;;;;;;;1.60;1.20;;;22.90;53.50;;;;;;5025678;28;20660;-60
2021/09/26 06:16:26;;;;;;;1.60;1.30;;;22.90;53.50;;;;;;5020490;28;20101;-60
2021/09/26 06:18:51;;;;;;;2.28;1.60;;;22.90;53.50;;;;;;5021838;28;20026;-60
2021/09/26 06:21:17;;;;;;;1.85;1.30;;;22.90;53.50;;;;;;5022985;28;20053;-63
2021/09/26 06:23:43;;;;;;;2.10;1.38;;;22.90;53.60;;;;;;5021894;28;20026;-60
2021/09/26 06:26:08;;;;;;;1.98;1.42;;;22.90;53.60;;;;;;5020909;28;20042;-60
2021/09/26 06:28:34;;;;;;;1.95;1.30;;;22.90;53.60;;;;;;5026004;28;20025;-61
2021/09/26 06:31:00;;;;;;;2.30;1.48;;;22.90;53.60;;;;;;5023134;28;20034;-59
2021/09/26 06:33:26;;;;;;;1.55;1.20;;;22.90;53.60;;;;;;5024629;28;20040;-60
2021/09/26 06:35:52;;;;;;;2.40;1.60;;;22.90;53.60;;;;;;5025059;28;20029;-58
2021/09/26 06:38:18;;;;;;;2.67;1.50;;;22.80;53.50;;;;;;5023576;28;20025;-62
2021/09/26 06:40:44;;;;;;;2.05;1.40;;;22.90;53.50;;;;;;5026008;28;20025;-61
2021/09/26 06:43:12;;;;;;;1.90;1.30;;;22.80;53.50;;;;;;5023094;28;20038;-60
2021/09/26 06:45:38;;;;;;;1.77;1.30;;;22.90;53.50;;;;;;5024875;28;20469;-61
2021/09/26 06:48:04;;;;;;;2.30;1.50;;;22.90;53.50;;;;;;5024361;28;20041;-60
2021/09/26 06:50:30;;;;;;;2.10;1.60;;;22.90;53.50;;;;;;5032325;28;20511;-61
2021/09/26 06:52:55;;;;;;;2.22;1.35;;;22.90;53.50;;;;;;5027451;28;20049;-62
2021/09/26 06:55:21;;;;;;;1.90;1.40;;;22.80;53.40;;;;;;5030443;28;20025;-62
2021/09/26 06:57:47;;;;;;;1.95;1.40;;;22.80;53.40;;;;;;5023210;28;20033;-61
2021/09/26 07:00:13;;;;;;;2.15;1.25;;;22.80;53.50;;;;;;5032944;28;20025;-62
2021/09/26 07:02:40;;;;;;;2.47;1.33;;;22.80;53.50;;;;;;5018275;28;20072;-56
2021/09/26 07:05:06;;;;;;;2.03;1.33;;;22.80;53.50;;;;;;5022962;28;20075;-59
2021/09/26 07:07:32;;;;;;;1.80;1.40;;;22.80;53.50;;;;;;5025151;28;20030;-59
2021/09/26 07:09:58;;;;;;;2.05;1.40;;;22.80;53.50;;;;;;5016940;28;20033;-62
2021/09/26 07:12:23;;;;;;;2.20;1.55;;;22.80;53.50;;;;;;5022852;28;20058;-60
2021/09/26 07:14:51;;;;;;;1.70;1.23;;;22.80;53.50;;;;;;5010085;28;20163;-62
2021/09/26 07:17:19;;;;;;;2.25;1.42;;;22.80;53.50;;;;;;5021046;28;20033;-59
2021/09/26 07:19:45;;;;;;;2.63;1.40;;;22.80;54.00;;;;;;5022586;28;20758;-60
2021/09/26 07:22:11;;;;;;;2.22;1.20;;;22.80;53.50;;;;;;5027635;28;20022;-61
2021/09/26 07:24:37;;;;;;;2.33;1.48;;;22.80;53.50;;;;;;5013818;28;20040;-60
2021/09/26 07:27:03;;;;;;;2.33;1.40;;;22.80;53.50;;;;;;5022970;28;20037;-62
2021/09/26 07:29:28;;;;;;;2.13;1.50;;;22.80;53.50;;;;;;5023473;28;20053;-58
2021/09/26 07:31:54;;;;;;;1.85;1.42;;;22.80;53.50;;;;;;5013365;28;20072;-62
2021/09/26 07:34:19;;;;;;;3.83;1.58;;;22.80;54.10;;;;;;5021024;28;20026;-60
2021/09/26 07:36:45;;;;;;;2.10;1.38;;;22.80;53.60;;;;;;5016108;28;20132;-62
2021/09/26 07:39:11;;;;;;;2.60;1.73;;;22.80;53.70;;;;;;5022748;28;20033;-60
2021/09/26 07:41:37;;;;;;;2.60;1.73;;;22.80;53.70;;;;;;5025782;28;20026;-59
2021/09/26 07:44:03;;;;;;;2.15;1.52;;;22.80;53.80;;;;;;5021102;28;20775;-61
2021/09/26 07:46:28;;;;;;;2.00;1.60;;;22.80;53.80;;;;;;5020816;28;20037;-61
2021/09/26 07:48:54;;;;;;;2.60;1.65;;;22.80;53.90;;;;;;5021386;28;20040;-59
2021/09/26 07:51:19;;;;;;;2.60;1.70;;;22.80;54.00;;;;;;5025166;28;20458;-61
2021/09/26 07:53:45;;;;;;;2.42;1.70;;;22.80;54.00;;;;;;5022968;28;20034;-62
2021/09/26 07:56:11;;;;;;;2.50;1.75;;;22.80;54.00;;;;;;5022863;28;20044;-59
2021/09/26 07:58:37;;;;;;;3.70;1.80;;;22.80;54.00;;;;;;5020771;28;20030;-58
2021/09/26 08:01:02;;;;;;;2.15;1.70;;;22.80;54.10;;;;;;5015101;28;20052;-63
2021/09/26 08:03:29;;;;;;;2.42;1.90;;;22.80;54.10;;;;;;5020886;28;20033;-61
2021/09/26 08:05:57;;;;;;;3.10;2.00;;;22.80;54.20;;;;;;5020378;28;20037;-61
2021/09/26 08:08:23;;;;;;;3.00;2.10;;;22.80;54.20;;;;;;5017746;28;20021;-61
2021/09/26 08:10:49;;;;;;;2.80;1.90;;;22.80;54.30;;;;;;5018876;28;20403;-61
2021/09/26 08:13:15;;;;;;;2.70;1.98;;;22.80;54.40;;;;;;5018802;28;20026;-64
2021/09/26 08:15:41;;;;;;;3.58;2.33;;;22.80;54.40;;;;;;5019493;28;20034;-61
2021/09/26 08:18:06;;;;;;;2.50;1.80;;;22.80;54.50;;;;;;5018325;28;20172;-62
2021/09/26 08:20:32;;;;;;;3.80;2.10;;;22.80;54.60;;;;;;5021240;28;20038;-59
2021/09/26 08:22:58;;;;;;;2.67;2.20;;;22.80;54.70;;;;;;5022803;28;20052;-63
2021/09/26 08:25:23;;;;;;;3.47;2.20;;;22.80;54.70;;;;;;5014519;28;20040;-62
2021/09/26 08:27:52;;;;;;;3.53;2.80;;;22.80;54.80;;;;;;5016913;28;20041;-63
2021/09/26 08:30:19;;;;;;;3.28;2.25;;;22.80;54.90;;;;;;5011927;28;20925;-59
2021/09/26 08:32:46;;;;;;;3.10;2.30;;;22.80;54.90;;;;;;5023575;28;20433;-59
2021/09/26 08:35:12;;;;;;;4.22;2.30;;;22.80;55.00;;;;;;5016194;28;20029;-63
2021/09/26 08:37:38;;;;;;;3.83;2.70;;;22.80;55.10;;;;;;5019037;28;20025;-60
2021/09/26 08:40:05;;;;;;;3.20;2.58;;;22.80;55.10;;;;;;5020082;28;20384;-59
2021/09/26 08:42:32;;;;;;;3.17;2.45;;;22.80;55.20;;;;;;5018422;28;20389;-60
2021/09/26 08:44:58;;;;;;;3.47;2.60;;;22.80;55.30;;;;;;5020308;28;20033;-62
2021/09/26 08:47:25;;;;;;;3.28;2.60;;;22.80;55.30;;;;;;5019848;28;20056;-60
2021/09/26 08:49:52;;;;;;;2.72;2.22;;;22.80;55.40;;;;;;5018325;28;20111;-63
2021/09/26 08:52:18;;;;;;;2.78;2.45;;;22.80;55.50;;;;;;5021776;28;20026;-62
2021/09/26 08:54:44;;;;;;;3.33;2.60;;;22.80;55.60;;;;;;5021271;28;20700;-62
2021/09/26 08:57:10;;;;;;;3.45;2.50;;;22.80;55.60;;;;;;5014822;28;20125;-60
2021/09/26 08:59:36;;;;;;;3.53;2.67;;;22.80;55.70;;;;;;5015450;28;20136;-59
2021/09/26 09:02:04;;;;;;;3.60;2.70;;;22.80;55.80;;;;;;5020442;28;20037;-60
2021/09/26 09:04:42;;;;;;;3.75;2.60;;;22.80;55.90;;;;;;5019722;28;20374;-58
2021/09/26 09:07:10;;;;;;;3.08;2.45;;;22.80;55.90;;;;;;5020057;28;20034;-62
2021/09/26 09:09:50;;;;;;;3.90;2.78;;;22.80;56.00;;;;;;5013085;28;20018;-60
2021/09/26 09:12:17;;;;;;;3.50;2.67;;;22.80;56.00;;;;;;5019887;28;20032;-60
2021/09/26 09:15:04;;;;;;;3.63;2.63;;;22.90;56.00;;;;;;5017951;28;20095;-58
2021/09/26 09:17:34;;;;;;;3.90;2.80;;;22.90;56.10;;;;;;5011629;28;20030;-60
2021/09/26 09:20:24;;;;;;;3.83;2.60;;;22.90;56.10;;;;;;5022389;28;20037;-61
2021/09/26 09:22:58;;;;;;;2.97;2.47;;;22.90;56.20;;;;;;5018126;28;20059;-62
2021/09/26 09:25:32;;;;;;;3.13;2.50;;;22.90;56.20;;;;;;5015456;28;20029;-61
2021/09/26 09:27:58;;;;;;;3.60;2.85;;;22.80;56.20;;;;;;5019782;28;20033;-61
2021/09/26 09:30:32;;;;;;;3.40;2.85;;;22.80;56.20;;;;;;5015054;28;20482;-60
2021/09/26 09:32:58;;;;;;;3.83;2.70;;;22.80;56.20;;;;;;5013709;28;20627;-59
2021/09/26 09:35:24;;;;;;;3.53;2.40;;;22.90;56.70;;;;;;5011705;28;20049;-57
2021/09/26 09:37:50;;;;;;;4.55;2.65;;;22.90;56.30;;;;;;5017648;28;20030;-56
2021/09/26 09:40:19;;;;;;;3.70;2.35;;;22.90;56.30;;;;;;5015481;28;20061;-61
2021/09/26 09:42:50;;;;;;;3.78;2.70;;;22.90;56.30;;;;;;5016165;28;20033;-60
2021/09/26 09:45:20;;;;;;;3.78;2.88;;;22.90;56.30;;;;;;5025546;28;20132;-60
2021/09/26 09:48:33;;;;;;;3.65;2.47;;;22.90;56.30;;;;;;5012909;28;20040;-61
2021/09/26 09:51:06;;;;;;;3.90;2.75;;;22.90;56.50;;;;;;5014062;28;20042;-61
2021/09/26 09:53:45;;;;;;;3.15;2.72;;;22.90;56.40;;;;;;5018147;28;20071;-60
2021/09/26 09:56:23;;;;;;;3.90;2.80;;;22.80;56.40;;;;;;5015750;28;20035;-58
2021/09/26 09:58:54;;;;;;;3.63;2.70;;;22.90;56.50;;;;;;5009219;28;20516;-61
2021/09/26 10:01:22;;;;;;;3.40;2.60;;;22.90;56.50;;;;;;5014076;28;20038;-62
2021/09/26 10:03:54;;;;;;;3.97;2.63;;;22.90;56.50;;;;;;5020156;28;20075;-55
2021/09/26 10:06:31;;;;;;;3.83;2.70;;;22.90;56.50;;;;;;5032636;28;20165;-57
2021/09/26 10:08:59;;;;;;;3.15;2.35;;;22.90;57.10;;;;;;5017967;28;20434;-62
2021/09/26 10:11:27;;;;;;;4.00;2.60;;;22.90;56.50;;;;;;5016142;28;20034;-59
2021/09/26 10:13:53;;;;;;;3.67;2.72;;;22.90;56.60;;;;;;5021843;28;20060;-62
2021/09/26 10:16:19;;;;;;;3.58;2.80;;;22.90;56.60;;;;;;5018765;28;20034;-61
2021/09/26 10:18:45;;;;;;;3.55;2.67;;;22.90;56.60;;;;;;5017510;28;20104;-59
2021/09/26 10:21:12;;;;;;;3.35;2.58;;;22.90;56.60;;;;;;5019671;28;20105;-62
2021/09/26 10:23:43;;;;;;;4.05;2.67;;;22.90;56.70;;;;;;5017825;28;20026;-60
2021/09/26 10:26:10;;;;;;;4.43;2.80;;;22.90;56.70;;;;;;5024805;28;20107;-59
2021/09/26 10:28:36;;;;;;;3.40;2.70;;;22.90;56.70;;;;;;5017251;28;20081;-61
2021/09/26 10:31:05;;;;;;;3.78;2.58;;;22.90;56.60;;;;;;5010816;28;20046;-60
2021/09/26 10:33:32;;;;;;;3.37;2.70;;;22.90;56.70;;;;;;5021086;28;20029;-62
2021/09/26 10:35:59;;;;;;;3.85;2.60;;;22.90;56.60;;;;;;5016437;28;20132;-59
2021/09/26 10:38:26;;;;;;;4.07;2.95;;;22.90;56.60;;;;;;5016933;28;20109;-59
2021/09/26 10:40:52;;;;;;;3.78;3.03;;;22.90;56.60;;;;;;5019948;28;20091;-61
2021/09/26 10:43:27;;;;;;;3.42;2.75;;;22.90;56.70;;;;;;5021822;28;20188;-61
2021/09/26 10:46:20;;;;;;;3.50;2.72;;;22.90;56.70;;;;;;5022107;28;20064;-55
2021/09/26 10:49:06;;;;;;;3.92;3.00;;;22.90;57.20;;;;;;5022559;28;20658;-58
2021/09/26 10:51:58;;;;;;;4.90;3.05;;;22.90;56.90;;;;;;5021158;28;20026;-58
2021/09/26 10:54:31;;;;;;;4.03;3.13;;;22.90;57.00;;;;;;5022075;28;20042;-59
2021/09/26 10:57:10;;;;;;;3.60;2.88;;;22.90;56.90;;;;;;5036352;28;20025;-56
2021/09/26 10:59:43;;;;;;;3.33;3.00;;;23.00;57.10;;;;;;5018657;28;20033;-58
2021/09/26 11:02:25;;;;;;;3.30;2.78;;;23.00;57.10;;;;;;5020198;28;20164;-60
2021/09/26 11:04:55;;;;;;;3.15;2.55;;;22.90;57.20;;;;;;5028361;28;20521;-60
2021/09/26 11:07:29;;;;;;;3.78;2.80;;;23.00;57.10;;;;;;5023978;28;20140;-59
2021/09/26 11:10:01;;;;;;;3.95;2.97;;;23.00;57.10;;;;;;5024030;28;20043;-59
2021/09/26 11:12:36;;;;;;;3.72;2.78;;;23.00;57.10;;;;;;5023677;28;20723;-59
2021/09/26 11:15:22;;;;;;;4.38;2.85;;;22.90;57.00;;;;;;5024295;28;20037;-61
2021/09/26 11:17:57;;;;;;;3.75;3.00;;;23.00;57.10;;;;;;5025372;28;20171;-58
2021/09/26 11:20:25;;;;;;;3.47;2.65;;;23.00;57.10;;;;;;5022810;28;20066;-61
2021/09/26 11:23:06;;;;;;;3.50;2.87;;;23.00;57.00;;;;;;5020261;28;20150;-58
2021/09/26 11:25:57;;;;;;;3.72;3.00;;;23.00;57.60;;;;;;5019734;28;20157;-59
2021/09/26 11:28:23;;;;;;;4.32;3.20;;;23.00;57.10;;;;;;5021607;28;20053;-57
2021/09/26 11:30:49;;;;;;;3.50;2.90;;;23.00;57.00;;;;;;5019417;28;20033;-59
2021/09/26 11:33:15;;;;;;;3.72;2.72;;;23.00;56.90;;;;;;5022599;28;20037;-58
2021/09/26 11:35:41;;;;;;;3.38;2.88;;;23.00;56.90;;;;;;5023043;28;20104;-61
2021/09/26 11:38:11;;;;;;;3.92;2.63;;;23.00;56.90;;;;;;5020101;28;20627;-61
2021/09/26 11:40:54;;;;;;;4.25;2.85;;;23.00;56.90;;;;;;5012475;28;20447;-62
2021/09/26 11:43:23;;;;;;;3.28;2.90;;;23.00;56.90;;;;;;5020481;28;20768;-59
2021/09/26 11:45:49;;;;;;;4.20;2.80;;;23.00;56.90;;;;;;5021746;28;20031;-59
2021/09/26 11:48:15;;;;;;;3.67;2.80;;;23.00;56.80;;;;;;5014992;28;20387;-60
2021/09/26 11:50:44;;;;;;;3.45;2.72;;;23.00;56.80;;;;;;5017671;28;20033;-62
2021/09/26 11:53:14;;;;;;;3.78;2.60;;;23.00;56.80;;;;;;5024077;28;20072;-57
2021/09/26 11:55:41;;;;;;;3.90;2.90;;;23.00;56.70;;;;;;5019308;28;20088;-61
2021/09/26 11:58:09;;;;;;;3.67;2.80;;;23.00;57.30;;;;;;5029927;28;20033;-54
2021/09/26 12:00:40;;;;;;;4.22;2.83;;;23.00;57.30;;;;;;5026830;28;20041;-61
2021/09/26 12:03:33;;;;;;;4.18;3.10;;;23.00;57.30;;;;;;5022891;28;20038;-52
2021/09/26 12:06:00;;;;;;;3.70;2.75;;;23.10;56.90;;;;;;5011340;28;20041;-61
2021/09/26 12:08:36;;;;;;;4.32;2.90;;;23.00;57.30;;;;;;5024066;28;20083;-57
2021/09/26 12:11:07;;;;;;;3.97;2.90;;;23.00;56.80;;;;;;5018813;28;20049;-60
2021/09/26 12:13:43;;;;;;;4.03;2.90;;;23.00;56.80;;;;;;5023771;28;20025;-61
2021/09/26 12:16:09;;;;;;;3.65;2.90;;;23.10;56.90;;;;;;5021304;28;20061;-61
2021/09/26 12:18:35;;;;;;;3.42;2.90;;;23.10;56.90;;;;;;5019696;28;20317;-56
2021/09/26 12:21:06;;;;;;;3.60;2.90;;;23.10;56.90;;;;;;5030829;28;20025;-54
2021/09/26 12:23:45;;;;;;;4.05;2.53;;;23.10;56.80;;;;;;5018203;28;20140;-62
2021/09/26 12:26:11;;;;;;;3.67;2.72;;;23.10;56.80;;;;;;5018662;28;20029;-62
2021/09/26 12:28:40;;;;;;;3.63;2.60;;;23.10;56.80;;;;;;5023299;28;20029;-59
2021/09/26 12:31:06;;;;;;;4.32;2.83;;;23.10;56.80;;;;;;5006804;28;20121;-58
2021/09/26 12:33:40;;;;;;;3.83;2.90;;;23.10;56.90;;;;;;5018871;28;20091;-60
2021/09/26 12:36:11;;;;;;;3.78;2.90;;;23.10;56.80;;;;;;5016770;28;20056;-59
2021/09/26 12:38:57;;;;;;;4.22;3.20;;;23.10;56.80;;;;;;5019434;28;20017;-61
2021/09/26 12:41:26;;;;;;;3.13;2.40;;;23.10;56.80;;;;;;5025325;28;20108;-62
2021/09/26 12:43:54;;;;;;;;;;;23.10;56.80;;;;;;5024395;28;20036;-61
2021/09/26 12:46:24;;;;;;;3.25;2.58;;;23.10;56.80;;;;;;5015026;28;20220;-59
2021/09/26 12:48:50;;;;;;;3.95;2.85;;;23.10;56.80;;;;;;5016877;28;20466;-62
2021/09/26 12:51:27;;;;;;;4.80;3.00;;;23.10;56.70;;;;;;5018214;28;20031;-58
2021/09/26 12:53:55;;;;;;;4.45;2.90;;;23.10;56.70;;;;;;5019036;28;20115;-61
2021/09/26 12:56:24;;;;;;;3.67;2.55;;;23.20;56.70;;;;;;5014227;28;20040;-62